sensor_id;sensor_type;location;lat;lon;timestamp;pressure;altitude;pressure_sealevel;temperature;humidity
59154;BME280;44935;48.944;9.418;2023-01-28T00:00:16;99280.55;;;4.45;40.82
59154;BME280;44935;48.944;9.418;2023-01-28T00:02:43;99276.72;;;4.51;40.97
59154;BME280;44935;48.944;9.418;2023-01-28T00:05:13;99275.24;;;4.63;40.94
59154;BME280;44935;48.944;9.418;2023-01-28T00:07:40;99278.84;;;4.64;40.88
59154;BME280;44935;48.944;9.418;2023-01-28T00:10:08;99277.87;;;4.70;40.49
59154;BME280;44935;48.944;9.418;2023-01-28T00:12:35;99277.34;;;4.73;40.83
59154;BME280;44935;48.944;9.418;2023-01-28T00:15:02;99275.70;;;4.49;41.01
59154;BME280;44935;48.944;9.418;2023-01-28T00:17:29;99280.06;;;4.46;40.60
59154;BME280;44935;48.944;9.418;2023-01-28T00:19:56;99277.99;;;4.74;39.85
59154;BME280;44935;48.944;9.418;2023-01-28T00:22:23;99277.85;;;4.29;40.68
59154;BME280;44935;48.944;9.418;2023-01-28T00:24:50;99277.04;;;5.09;40.35
59154;BME280;44935;48.944;9.418;2023-01-28T00:27:17;99276.49;;;4.34;41.14
59154;BME280;44935;48.944;9.418;2023-01-28T00:29:44;99267.29;;;4.98;39.93
59154;BME280;44935;48.944;9.418;2023-01-28T00:32:11;99265.80;;;4.65;40.37
59154;BME280;44935;48.944;9.418;2023-01-28T00:34:38;99264.32;;;4.69;39.93
59154;BME280;44935;48.944;9.418;2023-01-28T00:37:05;99265.75;;;4.51;40.35
59154;BME280;44935;48.944;9.418;2023-01-28T00:39:32;99261.87;;;5.01;39.70
59154;BME280;44935;48.944;9.418;2023-01-28T00:41:59;99262.63;;;4.58;39.99
59154;BME280;44935;48.944;9.418;2023-01-28T00:44:26;99258.11;;;4.53;39.45
59154;BME280;44935;48.944;9.418;2023-01-28T00:46:53;99260.43;;;4.57;40.07
59154;BME280;44935;48.944;9.418;2023-01-28T00:49:19;99260.27;;;4.94;40.03
59154;BME280;44935;48.944;9.418;2023-01-28T00:51:46;99256.57;;;4.90;40.16
59154;BME280;44935;48.944;9.418;2023-01-28T00:54:13;99259.48;;;5.17;39.52
59154;BME280;44935;48.944;9.418;2023-01-28T00:56:40;99259.76;;;4.45;40.36
59154;BME280;44935;48.944;9.418;2023-01-28T00:59:07;99257.21;;;4.55;40.18
59154;BME280;44935;48.944;9.418;2023-01-28T01:01:35;99256.75;;;4.07;41.06
59154;BME280;44935;48.944;9.418;2023-01-28T01:04:02;99259.34;;;4.31;41.16
59154;BME280;44935;48.944;9.418;2023-01-28T01:06:30;99257.28;;;4.15;41.52
59154;BME280;44935;48.944;9.418;2023-01-28T01:08:58;99258.11;;;4.33;41.76
59154;BME280;44935;48.944;9.418;2023-01-28T01:11:25;99261.15;;;3.91;41.90
59154;BME280;44935;48.944;9.418;2023-01-28T01:13:53;99261.24;;;4.00;41.26
59154;BME280;44935;48.944;9.418;2023-01-28T01:16:22;99266.72;;;4.05;41.77
59154;BME280;44935;48.944;9.418;2023-01-28T01:18:51;99269.92;;;4.12;41.48
59154;BME280;44935;48.944;9.418;2023-01-28T01:21:20;99266.45;;;4.48;40.45
59154;BME280;44935;48.944;9.418;2023-01-28T01:23:48;99266.84;;;4.80;39.80
59154;BME280;44935;48.944;9.418;2023-01-28T01:26:16;99271.65;;;5.14;39.09
59154;BME280;44935;48.944;9.418;2023-01-28T01:28:43;99265.91;;;5.33;38.81
59154;BME280;44935;48.944;9.418;2023-01-28T01:31:13;99266.91;;;5.49;38.73
59154;BME280;44935;48.944;9.418;2023-01-28T01:33:40;99270.65;;;5.32;38.65
59154;BME280;44935;48.944;9.418;2023-01-28T01:36:09;99271.25;;;5.01;38.92
59154;BME280;44935;48.944;9.418;2023-01-28T01:38:36;99273.75;;;4.96;39.73
59154;BME280;44935;48.944;9.418;2023-01-28T01:41:04;99278.72;;;3.86;41.76
59154;BME280;44935;48.944;9.418;2023-01-28T01:43:46;99275.60;;;4.44;40.31
59154;BME280;44935;48.944;9.418;2023-01-28T01:46:15;99282.11;;;4.65;40.69
59154;BME280;44935;48.944;9.418;2023-01-28T01:48:44;99280.74;;;4.17;41.71
59154;BME280;44935;48.944;9.418;2023-01-28T01:51:15;99276.07;;;4.63;40.95
59154;BME280;44935;48.944;9.418;2023-01-28T01:53:46;99276.67;;;4.51;41.36
59154;BME280;44935;48.944;9.418;2023-01-28T01:56:19;99276.83;;;4.38;41.36
59154;BME280;44935;48.944;9.418;2023-01-28T01:58:49;99278.24;;;4.22;41.87
59154;BME280;44935;48.944;9.418;2023-01-28T02:01:19;99278.10;;;4.12;42.17
59154;BME280;44935;48.944;9.418;2023-01-28T02:03:52;99278.60;;;4.13;42.36
59154;BME280;44935;48.944;9.418;2023-01-28T02:06:21;99277.19;;;4.03;42.60
59154;BME280;44935;48.944;9.418;2023-01-28T02:08:52;99279.50;;;4.13;42.77
59154;BME280;44935;48.944;9.418;2023-01-28T02:11:20;99278.51;;;4.04;42.52
59154;BME280;44935;48.944;9.418;2023-01-28T02:13:49;99278.61;;;4.27;42.69
59154;BME280;44935;48.944;9.418;2023-01-28T02:16:18;99282.20;;;3.91;43.15
59154;BME280;44935;48.944;9.418;2023-01-28T02:18:46;99285.20;;;3.96;42.73
59154;BME280;44935;48.944;9.418;2023-01-28T02:22:31;99287.61;;;4.15;42.40
59154;BME280;44935;48.944;9.418;2023-01-28T02:25:33;99287.69;;;4.25;42.25
59154;BME280;44935;48.944;9.418;2023-01-28T02:28:12;99285.92;;;4.22;42.20
59154;BME280;44935;48.944;9.418;2023-01-28T02:30:52;99287.53;;;3.81;42.98
59154;BME280;44935;48.944;9.418;2023-01-28T02:33:28;99286.04;;;3.77;43.29
59154;BME280;44935;48.944;9.418;2023-01-28T02:35:56;99288.57;;;3.50;43.91
59154;BME280;44935;48.944;9.418;2023-01-28T02:38:31;99287.43;;;3.83;43.80
59154;BME280;44935;48.944;9.418;2023-01-28T02:41:04;99290.92;;;3.74;43.71
59154;BME280;44935;48.944;9.418;2023-01-28T02:43:33;99293.40;;;3.83;43.82
59154;BME280;44935;48.944;9.418;2023-01-28T02:46:10;99292.63;;;3.63;43.43
59154;BME280;44935;48.944;9.418;2023-01-28T02:48:38;99291.32;;;3.82;44.15
59154;BME280;44935;48.944;9.418;2023-01-28T02:51:24;99291.76;;;3.47;44.55
59154;BME280;44935;48.944;9.418;2023-01-28T02:54:01;99294.47;;;3.66;44.05
59154;BME280;44935;48.944;9.418;2023-01-28T02:56:37;99293.88;;;3.38;44.42
59154;BME280;44935;48.944;9.418;2023-01-28T02:59:10;99296.19;;;3.21;44.89
59154;BME280;44935;48.944;9.418;2023-01-28T03:01:42;99302.41;;;3.46;45.23
59154;BME280;44935;48.944;9.418;2023-01-28T03:04:19;99301.69;;;3.78;44.37
59154;BME280;44935;48.944;9.418;2023-01-28T03:06:50;99300.17;;;3.62;44.95
59154;BME280;44935;48.944;9.418;2023-01-28T03:09:20;99299.06;;;3.57;45.18
59154;BME280;44935;48.944;9.418;2023-01-28T03:11:51;99303.91;;;3.64;44.86
59154;BME280;44935;48.944;9.418;2023-01-28T03:14:20;99305.99;;;3.29;44.94
59154;BME280;44935;48.944;9.418;2023-01-28T03:16:49;99305.16;;;3.26;44.57
59154;BME280;44935;48.944;9.418;2023-01-28T03:19:18;99302.67;;;3.67;44.54
59154;BME280;44935;48.944;9.418;2023-01-28T03:21:47;99302.53;;;3.47;44.62
59154;BME280;44935;48.944;9.418;2023-01-28T03:24:19;99303.82;;;3.85;44.69
59154;BME280;44935;48.944;9.418;2023-01-28T03:26:57;99303.22;;;3.50;45.31
59154;BME280;44935;48.944;9.418;2023-01-28T03:29:27;99301.35;;;3.24;45.58
59154;BME280;44935;48.944;9.418;2023-01-28T03:31:58;99302.29;;;3.34;45.57
59154;BME280;44935;48.944;9.418;2023-01-28T03:34:26;99307.50;;;2.94;46.15
59154;BME280;44935;48.944;9.418;2023-01-28T03:36:54;99305.91;;;2.87;46.66
59154;BME280;44935;48.944;9.418;2023-01-28T03:39:23;99312.04;;;3.17;46.46
59154;BME280;44935;48.944;9.418;2023-01-28T03:42:00;99314.34;;;3.27;46.41
59154;BME280;44935;48.944;9.418;2023-01-28T03:44:28;99313.07;;;3.16;46.31
59154;BME280;44935;48.944;9.418;2023-01-28T03:46:55;99320.21;;;3.32;46.07
59154;BME280;44935;48.944;9.418;2023-01-28T03:49:22;99318.89;;;3.77;45.92
59154;BME280;44935;48.944;9.418;2023-01-28T03:51:49;99319.98;;;3.60;45.56
59154;BME280;44935;48.944;9.418;2023-01-28T03:54:16;99319.26;;;3.67;45.57
59154;BME280;44935;48.944;9.418;2023-01-28T03:56:43;99321.53;;;3.69;45.51
59154;BME280;44935;48.944;9.418;2023-01-28T03:59:10;99319.97;;;3.75;45.41
59154;BME280;44935;48.944;9.418;2023-01-28T04:01:37;99318.02;;;3.69;45.50
59154;BME280;44935;48.944;9.418;2023-01-28T04:04:04;99313.71;;;3.67;45.44
59154;BME280;44935;48.944;9.418;2023-01-28T04:06:31;99313.02;;;3.45;45.84
59154;BME280;44935;48.944;9.418;2023-01-28T04:08:57;99315.30;;;3.24;46.00
59154;BME280;44935;48.944;9.418;2023-01-28T04:11:25;99315.64;;;3.37;46.21
59154;BME280;44935;48.944;9.418;2023-01-28T04:13:52;99317.02;;;3.49;46.26
59154;BME280;44935;48.944;9.418;2023-01-28T04:16:19;99321.56;;;3.44;46.51
59154;BME280;44935;48.944;9.418;2023-01-28T04:18:46;99322.11;;;3.11;46.48
59154;BME280;44935;48.944;9.418;2023-01-28T04:21:13;99325.73;;;3.40;46.50
59154;BME280;44935;48.944;9.418;2023-01-28T04:23:40;99333.33;;;3.37;46.50
59154;BME280;44935;48.944;9.418;2023-01-28T04:26:07;99330.43;;;3.44;46.69
59154;BME280;44935;48.944;9.418;2023-01-28T04:28:34;99331.94;;;3.47;46.46
59154;BME280;44935;48.944;9.418;2023-01-28T04:31:01;99335.56;;;3.55;46.33
59154;BME280;44935;48.944;9.418;2023-01-28T04:33:28;99339.74;;;3.03;46.73
59154;BME280;44935;48.944;9.418;2023-01-28T04:35:55;99348.30;;;3.22;46.63
59154;BME280;44935;48.944;9.418;2023-01-28T04:38:22;99347.21;;;3.21;47.01
59154;BME280;44935;48.944;9.418;2023-01-28T04:40:54;99352.23;;;3.12;47.14
59154;BME280;44935;48.944;9.418;2023-01-28T04:43:21;99357.96;;;3.29;46.85
59154;BME280;44935;48.944;9.418;2023-01-28T04:45:48;99357.04;;;3.10;47.16
59154;BME280;44935;48.944;9.418;2023-01-28T04:48:15;99356.61;;;3.13;47.29
59154;BME280;44935;48.944;9.418;2023-01-28T04:50:43;99356.18;;;3.17;47.27
59154;BME280;44935;48.944;9.418;2023-01-28T04:53:11;99361.09;;;2.97;47.54
59154;BME280;44935;48.944;9.418;2023-01-28T04:55:38;99360.23;;;3.13;47.28
59154;BME280;44935;48.944;9.418;2023-01-28T04:58:05;99362.64;;;2.97;47.42
59154;BME280;44935;48.944;9.418;2023-01-28T05:00:32;99362.90;;;2.96;47.73
59154;BME280;44935;48.944;9.418;2023-01-28T05:02:59;99366.61;;;3.14;47.61
59154;BME280;44935;48.944;9.418;2023-01-28T05:05:26;99362.15;;;3.15;47.85
59154;BME280;44935;48.944;9.418;2023-01-28T05:07:54;99365.43;;;2.86;48.06
59154;BME280;44935;48.944;9.418;2023-01-28T05:10:22;99363.59;;;3.25;47.66
59154;BME280;44935;48.944;9.418;2023-01-28T05:12:49;99364.18;;;3.12;48.04
59154;BME280;44935;48.944;9.418;2023-01-28T05:15:17;99365.18;;;2.87;48.17
59154;BME280;44935;48.944;9.418;2023-01-28T05:17:45;99364.64;;;3.02;48.35
59154;BME280;44935;48.944;9.418;2023-01-28T05:20:13;99366.73;;;3.29;48.28
59154;BME280;44935;48.944;9.418;2023-01-28T05:22:41;99367.28;;;2.81;48.61
59154;BME280;44935;48.944;9.418;2023-01-28T05:25:09;99364.24;;;3.11;48.72
59154;BME280;44935;48.944;9.418;2023-01-28T05:27:36;99369.08;;;2.63;49.38
59154;BME280;44935;48.944;9.418;2023-01-28T05:30:04;99371.05;;;2.58;49.16
59154;BME280;44935;48.944;9.418;2023-01-28T05:32:31;99370.05;;;2.59;49.52
59154;BME280;44935;48.944;9.418;2023-01-28T05:34:58;99368.57;;;2.74;49.38
59154;BME280;44935;48.944;9.418;2023-01-28T05:37:25;99368.06;;;2.52;49.06
59154;BME280;44935;48.944;9.418;2023-01-28T05:39:52;99372.63;;;2.73;49.01
59154;BME280;44935;48.944;9.418;2023-01-28T05:42:18;99370.32;;;3.62;47.84
59154;BME280;44935;48.944;9.418;2023-01-28T05:44:45;99363.52;;;3.70;46.61
59154;BME280;44935;48.944;9.418;2023-01-28T05:47:12;99360.84;;;3.79;45.64
59154;BME280;44935;48.944;9.418;2023-01-28T05:49:39;99359.02;;;3.84;45.68
59154;BME280;44935;48.944;9.418;2023-01-28T05:52:06;99357.70;;;4.03;46.03
59154;BME280;44935;48.944;9.418;2023-01-28T05:54:33;99359.22;;;3.63;46.41
59154;BME280;44935;48.944;9.418;2023-01-28T05:57:00;99359.56;;;4.06;46.30
59154;BME280;44935;48.944;9.418;2023-01-28T05:59:27;99356.25;;;3.48;46.66
59154;BME280;44935;48.944;9.418;2023-01-28T06:01:54;99361.79;;;3.48;47.14
59154;BME280;44935;48.944;9.418;2023-01-28T06:04:21;99365.35;;;3.11;47.39
59154;BME280;44935;48.944;9.418;2023-01-28T06:06:48;99371.08;;;3.58;47.14
59154;BME280;44935;48.944;9.418;2023-01-28T06:09:15;99371.81;;;3.69;46.97
59154;BME280;44935;48.944;9.418;2023-01-28T06:11:41;99377.60;;;3.57;46.47
59154;BME280;44935;48.944;9.418;2023-01-28T06:14:08;99384.57;;;4.28;45.05
59154;BME280;44935;48.944;9.418;2023-01-28T06:16:35;99389.36;;;3.38;46.32
59154;BME280;44935;48.944;9.418;2023-01-28T06:19:02;99390.56;;;4.70;44.14
59154;BME280;44935;48.944;9.418;2023-01-28T06:21:29;99394.73;;;4.73;43.96
59154;BME280;44935;48.944;9.418;2023-01-28T06:23:56;99398.96;;;4.54;43.52
59154;BME280;44935;48.944;9.418;2023-01-28T06:26:23;99401.95;;;5.04;43.11
59154;BME280;44935;48.944;9.418;2023-01-28T06:28:50;99405.39;;;4.90;43.39
59154;BME280;44935;48.944;9.418;2023-01-28T06:31:17;99405.69;;;5.02;43.70
59154;BME280;44935;48.944;9.418;2023-01-28T06:33:44;99408.64;;;4.46;44.46
59154;BME280;44935;48.944;9.418;2023-01-28T06:36:11;99410.29;;;4.08;45.07
59154;BME280;44935;48.944;9.418;2023-01-28T06:38:38;99416.19;;;4.12;45.43
59154;BME280;44935;48.944;9.418;2023-01-28T06:41:05;99415.75;;;4.14;45.71
59154;BME280;44935;48.944;9.418;2023-01-28T06:43:32;99421.02;;;3.57;45.94
59154;BME280;44935;48.944;9.418;2023-01-28T06:45:59;99424.41;;;3.98;46.33
59154;BME280;44935;48.944;9.418;2023-01-28T06:48:26;99426.12;;;3.62;46.40
59154;BME280;44935;48.944;9.418;2023-01-28T06:50:53;99431.60;;;3.58;46.54
59154;BME280;44935;48.944;9.418;2023-01-28T06:53:20;99438.05;;;3.48;46.77
59154;BME280;44935;48.944;9.418;2023-01-28T06:55:48;99441.38;;;3.51;47.20
59154;BME280;44935;48.944;9.418;2023-01-28T06:58:15;99439.73;;;3.60;47.12
59154;BME280;44935;48.944;9.418;2023-01-28T07:00:42;99438.17;;;3.53;47.06
59154;BME280;44935;48.944;9.418;2023-01-28T07:03:09;99439.07;;;3.50;47.17
59154;BME280;44935;48.944;9.418;2023-01-28T07:05:36;99442.28;;;3.59;47.20
59154;BME280;44935;48.944;9.418;2023-01-28T07:08:03;99441.77;;;3.54;47.26
59154;BME280;44935;48.944;9.418;2023-01-28T07:10:30;99447.58;;;3.41;47.55
59154;BME280;44935;48.944;9.418;2023-01-28T07:13:02;99450.97;;;3.47;47.38
59154;BME280;44935;48.944;9.418;2023-01-28T07:15:29;99454.15;;;3.46;47.46
59154;BME280;44935;48.944;9.418;2023-01-28T07:17:56;99451.23;;;3.40;47.72
59154;BME280;44935;48.944;9.418;2023-01-28T07:20:23;99451.72;;;3.27;47.53
59154;BME280;44935;48.944;9.418;2023-01-28T07:22:50;99454.19;;;3.60;46.89
59154;BME280;44935;48.944;9.418;2023-01-28T07:25:17;99454.08;;;3.73;47.14
59154;BME280;44935;48.944;9.418;2023-01-28T07:27:47;99460.26;;;3.18;47.98
59154;BME280;44935;48.944;9.418;2023-01-28T07:30:16;99460.49;;;3.08;47.85
59154;BME280;44935;48.944;9.418;2023-01-28T07:32:44;99464.55;;;3.45;47.17
59154;BME280;44935;48.944;9.418;2023-01-28T07:35:11;99462.10;;;3.54;47.24
59154;BME280;44935;48.944;9.418;2023-01-28T07:37:39;99466.26;;;3.39;47.66
59154;BME280;44935;48.944;9.418;2023-01-28T07:40:07;99467.60;;;3.65;47.45
59154;BME280;44935;48.944;9.418;2023-01-28T07:42:34;99468.37;;;3.57;47.44
59154;BME280;44935;48.944;9.418;2023-01-28T07:45:01;99468.51;;;3.45;47.81
59154;BME280;44935;48.944;9.418;2023-01-28T07:47:28;99467.43;;;3.86;47.70
59154;BME280;44935;48.944;9.418;2023-01-28T07:49:55;99467.64;;;3.44;48.02
59154;BME280;44935;48.944;9.418;2023-01-28T07:52:22;99469.13;;;3.32;48.26
59154;BME280;44935;48.944;9.418;2023-01-28T07:54:49;99475.54;;;3.41;48.26
59154;BME280;44935;48.944;9.418;2023-01-28T07:57:16;99474.96;;;3.56;47.97
59154;BME280;44935;48.944;9.418;2023-01-28T07:59:43;99476.40;;;4.27;46.59
59154;BME280;44935;48.944;9.418;2023-01-28T08:02:10;99476.65;;;3.38;47.22
59154;BME280;44935;48.944;9.418;2023-01-28T08:04:37;99479.65;;;4.39;45.71
59154;BME280;44935;48.944;9.418;2023-01-28T08:07:04;99478.61;;;3.99;46.18
59154;BME280;44935;48.944;9.418;2023-01-28T08:09:31;99480.48;;;3.96;46.33
59154;BME280;44935;48.944;9.418;2023-01-28T08:11:59;99482.93;;;4.25;46.25
59154;BME280;44935;48.944;9.418;2023-01-28T08:14:26;99488.54;;;4.20;46.44
59154;BME280;44935;48.944;9.418;2023-01-28T08:16:54;99489.38;;;4.29;46.80
59154;BME280;44935;48.944;9.418;2023-01-28T08:19:21;99491.91;;;4.25;45.79
59154;BME280;44935;48.944;9.418;2023-01-28T08:21:47;99487.43;;;4.42;45.68
59154;BME280;44935;48.944;9.418;2023-01-28T08:24:14;99489.73;;;4.86;45.06
59154;BME280;44935;48.944;9.418;2023-01-28T08:26:42;99493.15;;;4.76;45.11
59154;BME280;44935;48.944;9.418;2023-01-28T08:29:09;99494.05;;;4.99;44.81
59154;BME280;44935;48.944;9.418;2023-01-28T08:31:36;99500.00;;;4.00;45.79
59154;BME280;44935;48.944;9.418;2023-01-28T08:34:17;99497.21;;;4.61;43.68
59154;BME280;44935;48.944;9.418;2023-01-28T08:36:43;99498.43;;;4.83;43.85
59154;BME280;44935;48.944;9.418;2023-01-28T08:39:10;99500.96;;;4.23;43.90
59154;BME280;44935;48.944;9.418;2023-01-28T08:41:37;99505.57;;;3.74;45.05
59154;BME280;44935;48.944;9.418;2023-01-28T08:44:04;99492.60;;;5.39;42.70
59154;BME280;44935;48.944;9.418;2023-01-28T08:46:31;99491.11;;;3.96;43.74
59154;BME280;44935;48.944;9.418;2023-01-28T08:48:58;99491.88;;;4.69;43.79
59154;BME280;44935;48.944;9.418;2023-01-28T08:51:25;99493.90;;;5.28;42.34
59154;BME280;44935;48.944;9.418;2023-01-28T08:53:52;99494.53;;;5.22;42.56
59154;BME280;44935;48.944;9.418;2023-01-28T08:56:19;99501.13;;;3.55;45.49
59154;BME280;44935;48.944;9.418;2023-01-28T08:58:46;99497.57;;;5.01;43.16
59154;BME280;44935;48.944;9.418;2023-01-28T09:01:13;99494.96;;;4.92;44.06
59154;BME280;44935;48.944;9.418;2023-01-28T09:03:40;99496.75;;;5.11;43.78
59154;BME280;44935;48.944;9.418;2023-01-28T09:06:06;99501.96;;;5.15;43.01
59154;BME280;44935;48.944;9.418;2023-01-28T09:08:33;99505.19;;;5.17;42.67
59154;BME280;44935;48.944;9.418;2023-01-28T09:11:00;99502.92;;;5.27;43.10
59154;BME280;44935;48.944;9.418;2023-01-28T09:13:27;99510.01;;;4.95;43.63
59154;BME280;44935;48.944;9.418;2023-01-28T09:15:54;99509.80;;;5.00;43.51
59154;BME280;44935;48.944;9.418;2023-01-28T09:18:22;99513.66;;;5.21;43.21
59154;BME280;44935;48.944;9.418;2023-01-28T09:20:49;99514.51;;;5.57;41.81
59154;BME280;44935;48.944;9.418;2023-01-28T09:23:16;99522.34;;;4.14;44.34
59154;BME280;44935;48.944;9.418;2023-01-28T09:25:43;99530.69;;;4.05;44.17
59154;BME280;44935;48.944;9.418;2023-01-28T09:28:10;99525.86;;;4.80;43.95
59154;BME280;44935;48.944;9.418;2023-01-28T09:30:37;99524.68;;;5.58;41.97
59154;BME280;44935;48.944;9.418;2023-01-28T09:33:04;99527.17;;;5.33;43.42
59154;BME280;44935;48.944;9.418;2023-01-28T09:35:32;99529.72;;;4.88;43.98
59154;BME280;44935;48.944;9.418;2023-01-28T09:37:59;99535.37;;;5.41;43.01
59154;BME280;44935;48.944;9.418;2023-01-28T09:40:34;99539.96;;;4.88;43.79
59154;BME280;44935;48.944;9.418;2023-01-28T09:43:13;99545.06;;;5.41;42.97
59154;BME280;44935;48.944;9.418;2023-01-28T09:45:47;99542.37;;;4.51;43.58
59154;BME280;44935;48.944;9.418;2023-01-28T09:48:17;99544.01;;;5.00;43.12
59154;BME280;44935;48.944;9.418;2023-01-28T09:50:48;99554.93;;;3.54;45.45
59154;BME280;44935;48.944;9.418;2023-01-28T09:53:19;99550.35;;;5.01;43.04
59154;BME280;44935;48.944;9.418;2023-01-28T09:55:49;99561.38;;;5.52;42.51
59154;BME280;44935;48.944;9.418;2023-01-28T09:58:19;99555.95;;;5.65;42.27
59154;BME280;44935;48.944;9.418;2023-01-28T10:00:53;99557.90;;;4.75;43.45
59154;BME280;44935;48.944;9.418;2023-01-28T10:03:35;99555.75;;;5.90;41.81
59154;BME280;44935;48.944;9.418;2023-01-28T10:06:16;99554.09;;;5.90;41.68
59154;BME280;44935;48.944;9.418;2023-01-28T10:09:05;99556.26;;;5.07;42.54
59154;BME280;44935;48.944;9.418;2023-01-28T10:11:46;99548.21;;;4.80;43.11
59154;BME280;44935;48.944;9.418;2023-01-28T10:14:23;99547.68;;;5.45;42.51
59154;BME280;44935;48.944;9.418;2023-01-28T10:17:02;99540.53;;;5.83;41.94
59154;BME280;44935;48.944;9.418;2023-01-28T10:19:36;99538.89;;;5.67;42.61
59154;BME280;44935;48.944;9.418;2023-01-28T10:22:08;99539.84;;;3.22;45.34
59154;BME280;44935;48.944;9.418;2023-01-28T10:24:42;99536.48;;;4.57;44.50
59154;BME280;44935;48.944;9.418;2023-01-28T10:27:14;99533.91;;;4.73;44.20
59154;BME280;44935;48.944;9.418;2023-01-28T10:29:41;99533.14;;;4.94;43.59
59154;BME280;44935;48.944;9.418;2023-01-28T10:32:16;99532.25;;;5.64;42.67
59154;BME280;44935;48.944;9.418;2023-01-28T10:34:45;99530.04;;;5.37;42.95
59154;BME280;44935;48.944;9.418;2023-01-28T10:37:12;99529.41;;;4.99;43.27
59154;BME280;44935;48.944;9.418;2023-01-28T10:39:40;99530.31;;;4.49;44.64
59154;BME280;44935;48.944;9.418;2023-01-28T10:42:19;99527.06;;;4.95;43.48
59154;BME280;44935;48.944;9.418;2023-01-28T10:44:50;99524.20;;;5.79;42.54
59154;BME280;44935;48.944;9.418;2023-01-28T10:47:27;99527.18;;;2.51;47.20
59154;BME280;44935;48.944;9.418;2023-01-28T10:49:57;99530.53;;;4.25;44.95
59154;BME280;44935;48.944;9.418;2023-01-28T10:52:25;99528.06;;;4.66;44.39
59154;BME280;44935;48.944;9.418;2023-01-28T10:54:59;99538.61;;;3.91;44.35
59154;BME280;44935;48.944;9.418;2023-01-28T10:57:26;99537.07;;;4.45;44.18
59154;BME280;44935;48.944;9.418;2023-01-28T10:59:53;99531.03;;;4.95;43.13
59154;BME280;44935;48.944;9.418;2023-01-28T11:02:26;99532.08;;;4.67;43.60
59154;BME280;44935;48.944;9.418;2023-01-28T11:05:04;99536.93;;;5.37;42.79
59154;BME280;44935;48.944;9.418;2023-01-28T11:07:32;99535.34;;;5.61;42.20
59154;BME280;44935;48.944;9.418;2023-01-28T11:09:59;99535.90;;;5.05;42.88
59154;BME280;44935;48.944;9.418;2023-01-28T11:12:27;99543.55;;;3.34;44.85
59154;BME280;44935;48.944;9.418;2023-01-28T11:14:56;99539.62;;;5.17;43.28
59154;BME280;44935;48.944;9.418;2023-01-28T11:17:26;99538.90;;;5.50;42.74
59154;BME280;44935;48.944;9.418;2023-01-28T11:19:56;99540.44;;;4.51;43.47
59154;BME280;44935;48.944;9.418;2023-01-28T11:22:31;99539.96;;;5.22;42.81
59154;BME280;44935;48.944;9.418;2023-01-28T11:24:59;99541.34;;;5.13;42.92
59154;BME280;44935;48.944;9.418;2023-01-28T11:27:29;99546.69;;;3.95;44.40
59154;BME280;44935;48.944;9.418;2023-01-28T11:29:57;99543.95;;;4.71;43.83
59154;BME280;44935;48.944;9.418;2023-01-28T11:32:26;99540.25;;;5.09;43.59
59154;BME280;44935;48.944;9.418;2023-01-28T11:34:55;99545.92;;;5.21;43.52
59154;BME280;44935;48.944;9.418;2023-01-28T11:37:24;99549.30;;;4.08;44.81
59154;BME280;44935;48.944;9.418;2023-01-28T11:40:24;99545.45;;;4.28;45.18
59154;BME280;44935;48.944;9.418;2023-01-28T11:42:54;99547.61;;;4.70;45.12
59154;BME280;44935;48.944;9.418;2023-01-28T11:45:27;99549.57;;;4.53;44.70
59154;BME280;44935;48.944;9.418;2023-01-28T11:48:06;99544.90;;;5.19;43.31
59154;BME280;44935;48.944;9.418;2023-01-28T11:50:44;99549.69;;;3.86;45.53
59154;BME280;44935;48.944;9.418;2023-01-28T11:53:31;99547.56;;;5.20;43.60
59154;BME280;44935;48.944;9.418;2023-01-28T11:56:12;99551.29;;;4.46;45.70
59154;BME280;44935;48.944;9.418;2023-01-28T11:58:51;99546.84;;;4.85;45.42
59154;BME280;44935;48.944;9.418;2023-01-28T12:01:26;99548.88;;;3.62;47.64
59154;BME280;44935;48.944;9.418;2023-01-28T12:04:15;99550.24;;;4.38;45.93
59154;BME280;44935;48.944;9.418;2023-01-28T12:06:56;99549.30;;;4.52;45.27
59154;BME280;44935;48.944;9.418;2023-01-28T12:09:31;99547.75;;;1.55;50.79
59154;BME280;44935;48.944;9.418;2023-01-28T12:12:12;99549.64;;;2.11;51.19
59154;BME280;44935;48.944;9.418;2023-01-28T12:14:58;99553.95;;;2.26;51.37
59154;BME280;44935;48.944;9.418;2023-01-28T12:17:38;99553.72;;;4.25;47.88
59154;BME280;44935;48.944;9.418;2023-01-28T12:20:17;99556.93;;;4.28;47.56
59154;BME280;44935;48.944;9.418;2023-01-28T12:23:04;99550.84;;;3.51;47.99
59154;BME280;44935;48.944;9.418;2023-01-28T12:25:41;99554.88;;;4.14;47.20
59154;BME280;44935;48.944;9.418;2023-01-28T12:28:23;99556.31;;;3.97;47.25
59154;BME280;44935;48.944;9.418;2023-01-28T12:31:14;99552.14;;;4.49;46.93
59154;BME280;44935;48.944;9.418;2023-01-28T12:33:56;99553.78;;;4.83;45.94
59154;BME280;44935;48.944;9.418;2023-01-28T12:36:32;99549.71;;;4.45;45.88
59154;BME280;44935;48.944;9.418;2023-01-28T12:39:15;99551.24;;;3.80;48.09
59154;BME280;44935;48.944;9.418;2023-01-28T12:41:47;99555.75;;;4.30;47.17
59154;BME280;44935;48.944;9.418;2023-01-28T12:44:21;99548.06;;;5.12;46.13
59154;BME280;44935;48.944;9.418;2023-01-28T12:46:53;99538.91;;;4.88;45.27
59154;BME280;44935;48.944;9.418;2023-01-28T12:49:27;99540.64;;;3.67;46.04
59154;BME280;44935;48.944;9.418;2023-01-28T12:52:00;99536.83;;;4.36;45.94
59154;BME280;44935;48.944;9.418;2023-01-28T12:54:34;99533.82;;;4.89;44.84
59154;BME280;44935;48.944;9.418;2023-01-28T12:57:08;99537.26;;;4.04;46.45
59154;BME280;44935;48.944;9.418;2023-01-28T12:59:42;99533.87;;;4.41;46.11
59154;BME280;44935;48.944;9.418;2023-01-28T13:02:21;99531.58;;;4.63;45.63
59154;BME280;44935;48.944;9.418;2023-01-28T13:04:55;99534.40;;;4.39;45.40
59154;BME280;44935;48.944;9.418;2023-01-28T13:07:27;99528.95;;;5.52;44.08
59154;BME280;44935;48.944;9.418;2023-01-28T13:10:03;99526.58;;;5.59;43.54
59154;BME280;44935;48.944;9.418;2023-01-28T13:12:31;99527.98;;;4.27;45.07
59154;BME280;44935;48.944;9.418;2023-01-28T13:15:00;99534.48;;;3.60;45.13
59154;BME280;44935;48.944;9.418;2023-01-28T13:17:29;99532.53;;;3.37;46.54
59154;BME280;44935;48.944;9.418;2023-01-28T13:19:56;99533.09;;;3.35;46.90
59154;BME280;44935;48.944;9.418;2023-01-28T13:22:27;99530.94;;;3.91;45.98
59154;BME280;44935;48.944;9.418;2023-01-28T13:24:55;99529.38;;;2.93;46.81